首页
METAR-TAF:

METAR-TAF

机场 :

邁亞密國際機場

迈阿密, 佛罗里达州, 美国

纬度: 25-47-26N, 经度: 080-18-59W, 海拔: 3米

当前天气观测

该预报发布于55分钟前的00:53 UTC
静风
温度 26°C
湿度 89%
气压 1018 hPa
能見度: 16.1公里
散云层高于1900英尺
散云层高于3800英尺
多云层高于17000英尺
阴天层高于25000英尺

METAR: KMIA 010053Z COR 00000KT 10SM SCT019 SCT038 BKN170 OVC250 26/24 A3007 RMK AO2 RAE37 SLP183 CB DSNT SW-NW MOV W P0001 T02560239 $

时间: 21:48 (01:48 UTC)

预报

该预报发布于2小时和18分钟前的23:30 UTC
预报有效从01日的 00点(UTC)到 02日的 06点(UTC)
风速6节,风向东转东北
能見度: 10公里
散云层高于2000英尺, 积雨云.
多云层高于5000英尺
附近有雷暴
从 01日的 0600点(UTC)
风速4节,风向多变
能見度: 10公里
散云层高于3000英尺
多云层高于5000英尺
附近有阵雨
从 01日的 1600点(UTC)
风速8节,风向
能見度: 10公里
少量云层高于2500英尺
散云层高于5000英尺
附近有阵雨

TAF: KMIA 312330Z 0100/0206 06006KT P6SM VCTS SCT020CB BKN050 FM010600 VRB04KT P6SM VCSH SCT030 BKN050 FM011600 08008KT P6SM VCSH FEW025 SCT050

超过4000个机场的气象观测和天气预报(METAR&TAF报告)。

可查询的气象台以黄色和红色小点在地图上表示。

将鼠标移到小点上方,可查看气象台名称。

然后点击查看天气观测和预报。

如需切换地图:点击带黑十字的绿色按钮放大地图;点击带横线的绿色按钮缩小地图;或者点击绿色箭头查看邻近地区的地图。


METAR-TAF: